Time;durP1;ratioP1;P1;durP2;ratioP2;P2;SDS_P1;SDS_P2;PMS_P1;PMS_P2;Temp;Humidity;BMP_temperature;BMP_pressure;BME280_temperature;BME280_humidity;BME280_pressure;Samples;Min_cycle;Max_cycle;Signal;HPM_P1;HPM_P2
2022/04/27 00:01:47;;;;;;;12.57;9.75;;;;;;;6.56;89.11;100348.94;10525287;28;20051;-68
2022/04/27 00:06:49;;;;;;;13.15;9.02;;;;;;;6.48;89.35;100366.41;10525319;28;20482;-68
2022/04/27 00:11:51;;;;;;;9.98;8.98;;;;;;;6.51;89.70;100356.81;10542633;28;20106;-68
2022/04/27 00:16:52;;;;;;;8.77;7.93;;;;;;;6.63;88.79;100357.53;10542453;28;20093;-68
2022/04/27 00:21:54;;;;;;;9.25;8.45;;;;;;;6.81;86.44;100363.44;10524273;28;20083;-69
2022/04/27 00:26:55;;;;;;;9.43;8.63;;;;;;;6.49;87.19;100371.63;10542379;28;20040;-68
2022/04/27 00:31:57;;;;;;;9.50;8.70;;;;;;;6.25;88.53;100372.72;10543073;28;20421;-69
2022/04/27 00:36:59;;;;;;;8.52;7.90;;;;;;;6.19;89.24;100377.97;10523765;28;20048;-67
2022/04/27 00:42:18;;;;;;;9.07;8.32;;;;;;;6.62;86.35;100371.50;10523331;28;20055;-69
2022/04/27 00:47:19;;;;;;;8.27;7.57;;;;;;;6.54;86.43;100377.66;10542679;28;20387;-68
2022/04/27 00:52:22;;;;;;;8.80;8.10;;;;;;;6.39;86.72;100377.81;10523262;28;20106;-68
2022/04/27 00:57:25;;;;;;;8.50;7.80;;;;;;;6.13;88.36;100387.63;10541154;28;20048;-68
2022/04/27 01:02:27;;;;;;;9.32;7.90;;;;;;;6.12;88.69;100378.91;10522700;28;20147;-69
2022/04/27 01:07:29;;;;;;;8.45;7.65;;;;;;;6.13;88.59;100390.22;10522129;28;20040;-69
2022/04/27 01:12:31;;;;;;;8.50;7.80;;;;;;;6.07;88.86;100394.63;10541765;28;20052;-69
2022/04/27 01:17:38;;;;;;;9.23;8.43;;;;;;;5.85;89.23;100400.84;10522716;28;20405;-69
2022/04/27 01:22:40;;;;;;;8.52;7.60;;;;;;;5.65;91.41;100400.09;10521914;28;20068;-69
2022/04/27 01:27:43;;;;;;;8.27;7.47;;;;;;;5.73;90.96;100401.75;10523967;28;20043;-69
2022/04/27 01:32:44;;;;;;;7.57;6.97;;;;;;;5.96;88.23;100393.81;10540511;28;20489;-68
2022/04/27 01:38:01;;;;;;;8.30;7.60;;;;;;;5.91;88.60;100405.13;10540353;28;20040;-69
2022/04/27 01:43:02;;;;;;;5.97;5.50;;;;;;;5.45;90.43;100410.63;10539627;28;20485;-68
2022/04/27 01:48:05;;;;;;;7.47;6.97;;;;;;;5.28;92.00;100408.09;10522336;28;20040;-68
2022/04/27 01:58:26;;;;;;;8.13;7.45;;;;;;;5.17;92.04;100417.69;10540450;28;20040;-71
2022/04/27 02:03:29;;;;;;;8.07;7.28;;;;;;;5.12;92.21;100427.25;10521975;28;20048;-70
2022/04/27 02:08:31;;;;;;;8.00;7.43;;;;;;;5.17;91.68;100428.97;10539966;28;20036;-70
2022/04/27 02:13:34;;;;;;;7.95;7.35;;;;;;;5.38;90.21;100427.16;10522168;28;20394;-70
2022/04/27 02:18:37;;;;;;;8.60;7.85;;;;;;;5.51;87.90;100429.72;10522808;28;20055;-70
2022/04/27 02:23:40;;;;;;;10.55;8.88;;;;;;;5.27;90.44;100429.84;10529234;28;20570;-71
2022/04/27 02:28:42;;;;;;;9.82;9.02;;;;;;;5.15;91.57;100424.66;10529549;28;20098;-70
2022/04/27 02:33:43;;;;;;;8.57;7.88;;;;;;;5.08;90.97;100431.59;10529640;28;20047;-71
2022/04/27 02:38:45;;;;;;;10.18;9.27;;;;;;;5.16;91.97;100427.25;10529311;28;20044;-71
2022/04/27 02:43:47;;;;;;;9.18;8.38;;;;;;;4.94;91.16;100434.25;10529691;28;20523;-71
2022/04/27 02:54:11;;;;;;;9.88;9.07;;;;;;;4.76;92.68;100436.91;10528457;28;20044;-71
2022/04/27 02:59:14;;;;;;;10.55;9.70;;;;;;;4.64;93.11;100442.13;10528635;28;20052;-71
2022/04/27 03:04:19;;;;;;;9.70;9.00;;;;;;;4.59;94.02;100447.34;10513881;28;20067;-69
2022/04/27 03:09:22;;;;;;;10.52;9.65;;;;;;;4.71;93.94;100457.75;10527586;28;20424;-69
2022/04/27 03:14:24;;;;;;;10.13;9.23;;;;;;;4.82;91.70;100452.50;10511139;28;20489;-70
2022/04/27 03:19:26;;;;;;;10.05;9.10;;;;;;;4.79;90.96;100460.34;10547179;28;20501;-71
2022/04/27 03:24:28;;;;;;;8.88;8.27;;;;;;;4.76;91.27;100470.75;10511128;28;20052;-71
2022/04/27 03:29:40;;;;;;;10.52;9.70;;;;;;;5.02;89.55;100460.28;10527458;28;20044;-72
2022/04/27 03:34:42;;;;;;;9.73;9.02;;;;;;;4.71;91.79;100465.56;10527763;28;20047;-71
2022/04/27 03:39:45;;;;;;;13.73;10.60;;;;;;;4.48;94.38;100462.97;10527025;28;20501;-70
2022/04/27 03:44:52;;;;;;;11.27;10.35;;;;;;;4.41;95.00;100468.16;10527830;28;20046;-70
2022/04/27 03:50:04;;;;;;;10.80;9.90;;;;;;;4.47;96.00;100474.25;10528683;28;20058;-70
2022/04/27 03:55:12;;;;;;;10.75;9.95;;;;;;;4.53;96.14;100481.19;10526878;28;20131;-70
2022/04/27 04:00:17;;;;;;;11.15;10.25;;;;;;;4.89;93.36;100480.28;10525913;28;20097;-71
2022/04/27 04:05:23;;;;;;;12.33;10.83;;;;;;;4.63;95.40;100487.25;10525407;28;20056;-70
2022/04/27 04:10:25;;;;;;;13.82;12.50;;;;;;;4.54;96.71;100514.16;10543879;28;20069;-71
2022/04/27 04:15:27;;;;;;;14.27;13.18;;;;;;;4.49;97.71;100516.75;10525533;28;20040;-71
2022/04/27 04:21:00;;;;;;;17.83;12.35;;;;;;;4.59;96.91;100530.66;10525514;28;20521;-71
2022/04/27 04:31:32;;;;;;;13.38;12.32;;;;;;;5.01;93.99;100535.00;10523857;28;20040;-71
2022/04/27 04:37:09;;;;;;;11.20;10.20;;;;;;;4.98;94.64;100545.41;10419588;28;20127;-71
2022/04/27 04:42:11;;;;;;;11.70;10.70;;;;;;;5.16;94.10;100551.47;10506376;28;20639;-70
2022/04/27 04:47:15;;;;;;;11.57;10.57;;;;;;;5.64;91.91;100552.22;10524430;28;20089;-70
2022/04/27 04:52:36;;;;;;;11.57;10.57;;;;;;;5.35;92.68;100560.97;10542015;28;20138;-71
2022/04/27 04:58:12;;;;;;;12.05;10.85;;;;;;;5.51;94.19;100565.28;10472766;28;20044;-71
2022/04/27 05:03:36;;;;;;;11.98;10.98;;;;;;;5.83;91.29;100573.00;10541664;28;20044;-70
2022/04/27 05:08:56;;;;;;;27.88;24.10;;;;;;;5.66;92.75;100595.66;10527210;28;20079;-70
2022/04/27 05:14:32;;;;;;;11.27;10.25;;;;;;;5.91;91.64;100603.44;10523270;28;20052;-70
2022/04/27 05:19:52;;;;;;;10.60;9.75;;;;;;;6.01;90.64;100600.81;10523406;28;20050;-71
2022/04/27 05:25:13;;;;;;;10.88;10.07;;;;;;;5.91;92.52;100624.31;10542014;28;20470;-71
2022/04/27 05:36:09;;;;;;;12.23;11.07;;;;;;;6.36;89.23;100627.63;10541481;28;20489;-70
2022/04/27 05:41:34;;;;;;;11.63;10.52;;;;;;;6.71;87.29;100637.88;10523863;28;20417;-70
2022/04/27 05:46:59;;;;;;;10.60;9.50;;;;;;;6.97;85.67;100642.94;10532678;28;20135;-70
2022/04/27 05:52:22;;;;;;;11.45;10.50;;;;;;;6.96;86.91;100635.97;10523299;28;20505;-70
2022/04/27 05:57:42;;;;;;;11.57;10.57;;;;;;;7.41;84.22;100639.94;10549919;28;20044;-69
2022/04/27 06:02:58;;;;;;;10.93;9.93;;;;;;;7.23;86.00;100663.66;10530978;28;20566;-70
2022/04/27 06:08:06;;;;;;;11.00;10.13;;;;;;;7.73;83.81;100651.84;10531379;28;20394;-70
2022/04/27 06:13:09;;;;;;;10.55;9.75;;;;;;;8.02;80.35;100648.94;10529853;28;20377;-71
2022/04/27 06:18:30;;;;;;;10.88;10.07;;;;;;;8.02;82.82;100660.25;10548712;28;20472;-71
2022/04/27 06:23:33;;;;;;;12.85;11.68;;;;;;;8.11;82.75;100658.44;10529513;28;20048;-70
2022/04/27 06:28:35;;;;;;;11.93;10.88;;;;;;;8.23;81.37;100661.75;10528964;28;20040;-70
2022/04/27 06:33:36;;;;;;;11.73;10.48;;;;;;;8.33;81.72;100671.25;10512445;28;20044;-70
2022/04/27 06:38:40;;;;;;;10.80;9.90;;;;;;;8.68;79.45;100671.72;10528664;28;20044;-70
2022/04/27 06:43:56;;;;;;;12.23;11.13;;;;;;;8.59;79.89;100683.19;10520998;28;20492;-71
2022/04/27 06:49:16;;;;;;;12.65;11.63;;;;;;;8.76;78.82;100682.91;10547498;28;20080;-70
2022/04/27 06:54:36;;;;;;;11.02;10.13;;;;;;;8.93;78.03;100696.66;10547601;28;20054;-69
2022/04/27 06:59:57;;;;;;;11.05;10.05;;;;;;;9.28;77.00;100700.50;10547840;28;20044;-71
2022/04/27 07:05:00;;;;;;;11.65;10.65;;;;;;;9.12;77.77;100706.88;10527043;28;20040;-71
2022/04/27 07:10:03;;;;;;;13.02;11.68;;;;;;;9.37;76.02;100718.72;10546182;28;20044;-70
2022/04/27 07:15:06;;;;;;;15.15;11.35;;;;;;;9.45;75.57;100724.72;10528707;28;20071;-70
2022/04/27 07:20:08;;;;;;;13.52;10.88;;;;;;;9.22;77.22;100724.22;10546539;28;20044;-71
2022/04/27 07:25:10;;;;;;;11.18;10.27;;;;;;;9.59;76.04;100725.34;10545541;28;20040;-70
2022/04/27 07:30:12;;;;;;;11.73;10.82;;;;;;;9.89;75.77;100733.59;10511765;28;20064;-70
2022/04/27 07:35:13;;;;;;;11.88;10.50;;;;;;;10.00;75.50;100736.88;10526990;28;20041;-70
2022/04/27 07:40:15;;;;;;;11.15;10.25;;;;;;;10.21;75.41;100737.41;10536166;28;20070;-70
2022/04/27 07:45:17;;;;;;;9.93;9.13;;;;;;;10.43;74.13;100746.63;10501023;28;20048;-71
2022/04/27 07:50:19;;;;;;;13.77;11.27;;;;;;;10.36;73.84;100750.28;10544492;28;20394;-70
2022/04/27 07:55:21;;;;;;;12.05;10.95;;;;;;;10.54;73.62;100747.28;10544074;28;20557;-70
2022/04/27 08:00:23;;;;;;;11.23;10.25;;;;;;;10.91;73.15;100759.66;10502012;28;20098;-70
2022/04/27 08:05:25;;;;;;;12.27;11.05;;;;;;;10.99;73.40;100756.88;10485000;28;20037;-71
2022/04/27 08:10:27;;;;;;;9.88;9.07;;;;;;;11.44;70.40;100768.13;10501987;28;20052;-71
2022/04/27 08:15:29;;;;;;;10.07;9.30;;;;;;;11.85;69.06;100761.84;10484701;28;20457;-71
2022/04/27 08:25:53;;;;;;;11.13;10.13;;;;;;;12.29;68.79;100758.97;10542003;28;20042;-70
2022/04/27 08:30:55;;;;;;;10.63;9.55;;;;;;;12.31;67.67;100767.72;10542362;28;20048;-71
2022/04/27 08:35:57;;;;;;;11.95;10.15;;;;;;;12.44;67.15;100774.38;10542382;28;20511;-70
2022/04/27 08:41:19;;;;;;;10.85;10.05;;;;;;;12.57;67.58;100778.41;10541958;28;20131;-70
2022/04/27 08:46:21;;;;;;;10.40;9.65;;;;;;;12.63;65.01;100780.00;10542194;28;20048;-70
2022/04/27 08:51:23;;;;;;;10.52;9.55;;;;;;;12.64;65.04;100773.81;10541826;28;20052;-70
2022/04/27 08:56:26;;;;;;;10.48;9.68;;;;;;;12.58;65.09;100787.19;10542108;28;20038;-70
2022/04/27 09:01:28;;;;;;;9.13;8.32;;;;;;;12.82;62.79;100788.25;10541665;28;20097;-72
2022/04/27 09:06:41;;;;;;;7.60;7.10;;;;;;;13.04;59.38;100781.41;10541666;28;20101;-69
2022/04/27 09:11:51;;;;;;;10.35;9.57;;;;;;;13.23;59.68;100784.38;10541938;28;20048;-71
2022/04/27 09:22:27;;;;;;;9.43;8.75;;;;;;;14.02;57.61;100788.88;10469145;28;20560;-71
2022/04/27 09:27:29;;;;;;;9.70;8.90;;;;;;;14.08;56.92;100787.81;10541038;28;20046;-71
2022/04/27 09:32:31;;;;;;;9.30;8.68;;;;;;;14.32;56.20;100786.09;10541240;28;20044;-72
2022/04/27 09:37:41;;;;;;;8.77;8.18;;;;;;;14.53;54.32;100784.50;10541206;28;20093;-72
2022/04/27 09:42:46;;;;;;;8.98;8.35;;;;;;;14.62;55.24;100784.19;10541352;28;20047;-71
2022/04/27 09:47:53;;;;;;;8.85;8.25;;;;;;;15.27;52.74;100788.78;10536268;28;20478;-71
2022/04/27 09:52:55;;;;;;;8.05;7.40;;;;;;;15.80;52.43;100774.28;10540818;28;20412;-72
2022/04/27 09:57:57;;;;;;;7.95;7.45;;;;;;;16.26;50.85;100775.00;10521901;28;20036;-71
2022/04/27 10:03:00;;;;;;;8.65;7.95;;;;;;;16.20;50.22;100773.44;10539797;28;20040;-71
2022/04/27 10:08:04;;;;;;;9.35;8.55;;;;;;;16.46;50.24;100768.81;10539158;28;20058;-69
2022/04/27 10:13:12;;;;;;;8.48;7.95;;;;;;;17.49;48.17;100759.63;10537779;28;20486;-70
2022/04/27 10:18:15;;;;;;;7.07;6.47;;;;;;;17.70;46.14;100757.69;10538237;28;20040;-71
2022/04/27 10:23:28;;;;;;;6.75;6.15;;;;;;;18.11;43.57;100761.81;10538865;28;20040;-72
2022/04/27 10:28:29;;;;;;;7.30;6.80;;;;;;;18.02;44.25;100761.44;10520422;28;20043;-70
2022/04/27 10:33:40;;;;;;;4.65;3.63;;;;;;;18.37;37.10;100756.91;10538121;28;20059;-71
2022/04/27 10:38:42;;;;;;;4.22;3.88;;;;;;;18.71;38.87;100763.16;10539528;28;20090;-71
2022/04/27 10:43:44;;;;;;;4.85;4.30;;;;;;;19.29;36.72;100750.13;10546241;28;20040;-71
2022/04/27 10:48:50;;;;;;;3.92;3.63;;;;;;;18.98;36.76;100753.66;10544744;28;20070;-70
2022/04/27 10:54:03;;;;;;;5.03;4.63;;;;;;;18.31;38.62;100750.13;10519674;28;20051;-71
2022/04/27 10:59:49;;;;;;;4.18;3.78;;;;;;;17.53;40.10;100751.41;10545657;28;20125;-70
2022/04/27 11:04:52;;;;;;;6.15;5.68;;;;;;;16.78;44.64;100757.66;10545427;28;20048;-70
2022/04/27 11:10:15;;;;;;;9.82;7.32;;;;;;;16.23;47.20;100759.22;10545278;28;20055;-70
2022/04/27 11:15:25;;;;;;;8.02;7.38;;;;;;;16.47;46.86;100765.22;10545237;28;20083;-71
2022/04/27 11:20:34;;;;;;;7.55;6.93;;;;;;;16.18;47.12;100761.22;10545203;28;20516;-70
2022/04/27 11:25:39;;;;;;;6.50;5.95;;;;;;;16.32;45.08;100761.47;10544972;28;20032;-70
2022/04/27 11:30:41;;;;;;;6.40;5.95;;;;;;;15.74;47.02;100769.25;10545554;28;20044;-71
2022/04/27 11:35:49;;;;;;;5.80;5.30;;;;;;;15.75;47.40;100769.19;10527065;28;20101;-71
2022/04/27 11:40:52;;;;;;;5.50;5.10;;;;;;;15.20;47.96;100768.72;10545094;28;20101;-71
2022/04/27 11:45:55;;;;;;;5.70;5.30;;;;;;;14.76;47.84;100781.88;10543783;28;20059;-72
2022/04/27 11:50:59;;;;;;;6.22;5.63;;;;;;;14.67;49.04;100773.41;10544696;28;20444;-71
2022/04/27 11:56:01;;;;;;;6.00;5.50;;;;;;;14.68;49.02;100781.28;10543771;28;20559;-72
2022/04/27 12:01:03;;;;;;;6.13;5.72;;;;;;;14.54;49.44;100771.22;10545134;28;20135;-71
2022/04/27 12:06:05;;;;;;;4.97;4.65;;;;;;;14.54;49.56;100775.66;10525612;28;20043;-72
2022/04/27 12:11:08;;;;;;;5.78;5.30;;;;;;;14.47;50.04;100779.38;10542814;28;20071;-71
2022/04/27 12:16:10;;;;;;;5.43;5.03;;;;;;;14.71;49.25;100785.63;10543403;28;20032;-71
2022/04/27 12:21:27;;;;;;;6.72;4.72;;;;;;;14.52;49.30;100782.75;10543154;28;20101;-71
2022/04/27 12:26:39;;;;;;;;;;;;;;;14.36;48.49;100782.44;10542912;28;20090;-70
2022/04/27 12:31:42;;;;;;;5.18;4.22;;;;;;;14.33;49.30;100791.31;10542566;28;19920;-71
2022/04/27 12:42:14;;;;;;;3.95;2.88;;;;;;;14.38;47.73;100780.56;10543176;28;20066;-71
2022/04/27 12:47:16;;;;;;;3.78;3.03;;;;;;;14.37;46.23;100784.16;10542390;28;20036;-70
2022/04/27 12:52:29;;;;;;;2.67;2.47;;;;;;;14.52;44.14;100785.41;10542295;28;20035;-72
2022/04/27 12:57:55;;;;;;;4.28;2.60;;;;;;;14.86;42.46;100785.03;10523427;28;20515;-73
2022/04/27 13:02:56;;;;;;;4.45;2.80;;;;;;;15.05;43.50;100769.31;10523013;28;20109;-71
2022/04/27 13:07:58;;;;;;;3.95;2.10;;;;;;;15.22;41.80;100773.97;10541373;28;20071;-71
2022/04/27 13:13:01;;;;;;;2.33;2.13;;;;;;;15.21;44.10;100773.09;10541200;28;20048;-71
2022/04/27 13:18:02;;;;;;;3.03;2.80;;;;;;;15.38;40.08;100773.28;10541208;28;20094;-71
2022/04/27 13:23:04;;;;;;;2.72;2.13;;;;;;;15.47;40.47;100771.22;10540583;28;20123;-71
2022/04/27 13:28:07;;;;;;;2.40;2.20;;;;;;;15.19;42.69;100769.66;10499067;28;20098;-71
2022/04/27 13:33:09;;;;;;;3.72;3.42;;;;;;;15.54;42.73;100759.44;10498971;28;20490;-70
2022/04/27 13:38:10;;;;;;;3.20;2.25;;;;;;;15.48;44.18;100765.84;10498911;28;20052;-72
2022/04/27 13:43:12;;;;;;;4.63;3.22;;;;;;;15.39;43.37;100774.16;10498498;28;20047;-71
2022/04/27 13:48:14;;;;;;;3.47;3.25;;;;;;;15.52;43.33;100763.94;10491403;28;20166;-72
2022/04/27 13:53:16;;;;;;;7.13;3.55;;;;;;;15.59;44.31;100763.63;10497603;28;20490;-71
2022/04/27 13:58:17;;;;;;;4.38;3.67;;;;;;;15.52;44.16;100762.13;10497639;28;20074;-69
2022/04/27 14:03:39;;;;;;;4.13;3.78;;;;;;;15.49;44.00;100772.84;10497174;28;20075;-69
2022/04/27 14:08:41;;;;;;;2.80;2.42;;;;;;;15.47;43.43;100773.84;10497242;28;20094;-69
2022/04/27 14:13:43;;;;;;;3.65;2.35;;;;;;;15.61;41.14;100763.56;10498520;28;20040;-70
2022/04/27 14:18:44;;;;;;;2.75;2.20;;;;;;;15.73;39.54;100768.38;10505785;28;20037;-69
2022/04/27 14:23:46;;;;;;;4.28;2.38;;;;;;;15.53;38.99;100769.16;10504494;28;20045;-68
2022/04/27 14:28:49;;;;;;;3.42;2.63;;;;;;;15.63;39.38;100773.19;10504413;28;20082;-69
2022/04/27 14:33:50;;;;;;;2.85;2.50;;;;;;;15.59;39.88;100770.72;10503317;28;20502;-69
2022/04/27 14:38:53;;;;;;;7.53;2.22;;;;;;;15.51;39.70;100763.06;10494287;28;20056;-69
2022/04/27 14:43:55;;;;;;;2.63;2.42;;;;;;;15.65;40.09;100770.50;10504641;28;20398;-68
2022/04/27 14:48:56;;;;;;;3.30;2.15;;;;;;;15.57;40.56;100764.59;10503371;28;20033;-68
2022/04/27 14:53:58;;;;;;;3.65;2.22;;;;;;;15.49;40.80;100764.03;10503072;28;20040;-68
2022/04/27 14:59:00;;;;;;;2.42;2.00;;;;;;;15.49;40.12;100762.25;10503480;28;20094;-69
2022/04/27 15:04:01;;;;;;;2.38;2.00;;;;;;;15.52;40.26;100767.44;10503770;28;20486;-69
2022/04/27 15:09:03;;;;;;;2.28;2.08;;;;;;;15.61;39.29;100767.06;10501056;28;20036;-69
2022/04/27 15:14:04;;;;;;;3.13;1.88;;;;;;;15.62;39.95;100765.28;10503786;28;20067;-70
2022/04/27 15:19:06;;;;;;;2.45;2.08;;;;;;;15.76;40.13;100757.66;10503928;28;20513;-71
2022/04/27 15:24:08;;;;;;;3.70;2.40;;;;;;;15.82;39.44;100760.06;10503509;28;20059;-70
2022/04/27 15:29:09;;;;;;;2.85;2.55;;;;;;;15.80;38.98;100756.59;10502151;28;20398;-68
2022/04/27 15:34:11;;;;;;;2.95;2.00;;;;;;;15.67;39.97;100765.13;10503241;28;20045;-70
2022/04/27 15:39:12;;;;;;;2.90;2.60;;;;;;;15.72;39.60;100758.72;10482939;28;20041;-69
2022/04/27 15:44:14;;;;;;;3.45;2.47;;;;;;;15.66;41.19;100769.56;10485072;28;20045;-69
2022/04/27 15:49:16;;;;;;;5.15;3.70;;;;;;;15.77;39.70;100767.34;10488485;28;20036;-69
2022/04/27 15:54:17;;;;;;;4.15;2.83;;;;;;;15.76;39.54;100762.09;10502477;28;20094;-68
2022/04/27 15:59:19;;;;;;;3.08;2.60;;;;;;;15.82;40.23;100761.84;10501671;28;20464;-69
2022/04/27 16:04:21;;;;;;;12.32;3.67;;;;;;;15.76;38.92;100762.09;10501462;28;20551;-68
2022/04/27 16:09:22;;;;;;;3.10;2.88;;;;;;;15.54;40.42;100764.75;10500624;28;20470;-68
2022/04/27 16:14:26;;;;;;;2.60;2.22;;;;;;;15.77;40.57;100764.69;10500775;28;20114;-69
2022/04/27 16:19:28;;;;;;;3.75;3.05;;;;;;;15.74;39.82;100763.94;10500732;28;20040;-67
2022/04/27 16:24:30;;;;;;;3.70;3.17;;;;;;;15.27;40.74;100777.28;10495969;28;20041;-67
2022/04/27 16:29:32;;;;;;;3.38;3.00;;;;;;;15.13;41.08;100775.19;10499688;28;20037;-68
2022/04/27 16:34:34;;;;;;;2.85;2.63;;;;;;;14.96;41.79;100775.81;10496350;28;20090;-69
2022/04/27 16:39:36;;;;;;;2.95;2.75;;;;;;;14.97;42.21;100777.56;10498722;28;20036;-68
2022/04/27 16:44:38;;;;;;;4.90;4.40;;;;;;;15.06;42.27;100774.56;10498859;28;20048;-68
2022/04/27 16:49:40;;;;;;;3.53;3.22;;;;;;;14.92;43.11;100778.66;10499223;28;20154;-68
2022/04/27 16:54:41;;;;;;;7.03;3.83;;;;;;;14.81;42.82;100787.84;10498909;28;20037;-69
2022/04/27 16:59:43;;;;;;;4.07;3.00;;;;;;;14.75;43.55;100789.88;10496664;28;20390;-68
2022/04/27 17:04:45;;;;;;;4.40;4.10;;;;;;;14.65;43.90;100789.34;10498532;28;20055;-68
2022/04/27 17:09:47;;;;;;;6.13;4.63;;;;;;;14.56;44.23;100792.31;10498783;28;20055;-68
2022/04/27 17:14:48;;;;;;;4.60;4.05;;;;;;;14.47;44.54;100806.69;10498723;28;20053;-70
2022/04/27 17:19:50;;;;;;;4.78;4.25;;;;;;;14.52;44.25;100796.00;10498464;28;20461;-69
2022/04/27 17:24:52;;;;;;;3.75;3.20;;;;;;;14.40;44.87;100810.50;10489937;28;20398;-70
2022/04/27 17:29:54;;;;;;;4.90;3.95;;;;;;;14.43;45.10;100818.31;10499710;28;20036;-69
2022/04/27 17:34:55;;;;;;;9.05;3.80;;;;;;;14.50;44.94;100819.88;10490171;28;20055;-69
2022/04/27 17:39:57;;;;;;;4.30;3.90;;;;;;;14.27;45.92;100811.84;10499057;28;20513;-68
2022/04/27 17:45:01;;;;;;;4.72;3.30;;;;;;;13.96;47.53;100819.94;10499213;28;20044;-69
2022/04/27 17:50:05;;;;;;;6.93;4.32;;;;;;;13.86;48.13;100828.19;10502922;28;20410;-69
2022/04/27 17:55:09;;;;;;;4.63;4.20;;;;;;;13.69;48.80;100827.00;10507276;28;20127;-70
2022/04/27 18:00:13;;;;;;;4.47;3.85;;;;;;;13.60;49.74;100834.31;10506615;28;20092;-69
2022/04/27 18:05:22;;;;;;;5.85;5.35;;;;;;;13.49;50.97;100840.81;10507546;28;20525;-68
2022/04/27 18:10:24;;;;;;;10.85;9.95;;;;;;;13.65;50.88;100843.88;10506778;28;20109;-68
2022/04/27 18:15:46;;;;;;;7.05;6.65;;;;;;;13.50;51.26;100854.00;10501843;28;20058;-69
2022/04/27 18:20:48;;;;;;;5.65;5.10;;;;;;;13.22;52.39;100858.34;10505756;28;20159;-68
2022/04/27 18:25:50;;;;;;;6.00;4.28;;;;;;;13.20;52.53;100861.03;10505290;28;20048;-68
2022/04/27 18:30:56;;;;;;;4.70;4.30;;;;;;;13.35;52.08;100875.56;10504662;28;20471;-68
2022/04/27 18:35:58;;;;;;;4.05;3.65;;;;;;;13.34;51.42;100877.34;10504625;28;20040;-69
2022/04/27 18:41:00;;;;;;;5.75;5.25;;;;;;;13.41;50.62;100887.72;10504351;28;20460;-69
2022/04/27 18:51:23;;;;;;;4.57;3.45;;;;;;;13.08;51.57;100891.28;10499141;28;20048;-69
2022/04/27 18:56:24;;;;;;;5.65;3.70;;;;;;;12.99;51.32;100895.97;10504810;28;20045;-69
2022/04/27 19:01:26;;;;;;;4.45;3.63;;;;;;;12.64;53.13;100897.78;10503184;28;20052;-70
2022/04/27 19:06:28;;;;;;;5.38;3.50;;;;;;;12.48;53.34;100914.91;10503417;28;20544;-68
2022/04/27 19:11:29;;;;;;;4.53;4.13;;;;;;;12.38;51.97;100909.00;10502983;28;20457;-68
2022/04/27 19:16:31;;;;;;;4.25;3.65;;;;;;;12.13;52.63;100914.03;10503074;28;20040;-69
2022/04/27 19:21:36;;;;;;;4.75;4.35;;;;;;;12.25;52.34;100920.75;10502788;28;20049;-67
2022/04/27 19:26:38;;;;;;;6.93;4.30;;;;;;;12.39;51.87;100921.25;10502989;28;20098;-69
2022/04/27 19:31:46;;;;;;;5.40;4.40;;;;;;;12.28;51.86;100932.09;10500465;28;20135;-71
2022/04/27 19:36:47;;;;;;;4.45;4.00;;;;;;;11.98;53.77;100919.63;10502928;28;20397;-68
2022/04/27 19:41:49;;;;;;;9.93;3.95;;;;;;;11.73;55.57;100922.81;10500666;28;20098;-69
2022/04/27 19:46:51;;;;;;;4.60;4.20;;;;;;;11.49;56.33;100921.56;10502425;28;20056;-69
2022/04/27 19:51:54;;;;;;;4.43;4.03;;;;;;;11.35;58.19;100926.25;10501393;28;20048;-68
2022/04/27 19:56:57;;;;;;;3.60;3.30;;;;;;;11.08;58.85;100925.94;10501653;28;20552;-69
2022/04/27 20:01:58;;;;;;;4.10;3.80;;;;;;;10.87;59.29;100926.34;10501365;28;20048;-69
2022/04/27 20:07:00;;;;;;;5.63;4.13;;;;;;;10.74;61.06;100930.94;10501419;28;20052;-69
2022/04/27 20:12:02;;;;;;;4.60;4.20;;;;;;;10.60;61.75;100936.44;10500902;28;20460;-69
2022/04/27 20:17:03;;;;;;;4.75;4.35;;;;;;;10.38;62.96;100937.72;10500632;28;20128;-69
2022/04/27 20:22:05;;;;;;;4.40;3.90;;;;;;;10.23;64.27;100943.19;10500366;28;20131;-69
2022/04/27 20:27:07;;;;;;;4.72;4.30;;;;;;;10.01;65.65;100942.66;10492998;28;20044;-71
2022/04/27 20:32:09;;;;;;;5.68;5.07;;;;;;;9.95;65.13;100951.47;10501854;28;20040;-69
2022/04/27 20:37:12;;;;;;;5.05;4.65;;;;;;;9.74;65.90;100952.66;10500241;28;20082;-69
2022/04/27 20:42:14;;;;;;;6.07;5.22;;;;;;;9.66;66.38;100959.78;10499482;28;20115;-69
2022/04/27 20:47:17;;;;;;;5.45;5.00;;;;;;;9.49;66.66;100959.13;10500055;28;20040;-70
2022/04/27 20:52:18;;;;;;;5.35;4.90;;;;;;;9.39;67.29;100965.38;10500489;28;20097;-69
2022/04/27 20:57:20;;;;;;;5.60;5.20;;;;;;;9.17;67.79;100955.13;10498699;28;20094;-69
2022/04/27 21:02:22;;;;;;;7.55;5.45;;;;;;;9.30;68.74;100971.59;10494062;28;20060;-69
2022/04/27 21:07:25;;;;;;;5.53;5.13;;;;;;;9.05;69.14;100965.75;10499413;28;20052;-69
2022/04/27 21:12:27;;;;;;;5.07;4.68;;;;;;;8.93;69.06;100978.97;10498281;28;20049;-69
2022/04/27 21:17:29;;;;;;;5.93;5.40;;;;;;;9.20;70.75;100972.56;10498506;28;20472;-69
2022/04/27 21:22:30;;;;;;;5.53;5.13;;;;;;;8.91;70.48;100981.63;10497885;28;20044;-69
2022/04/27 21:27:32;;;;;;;7.28;5.60;;;;;;;8.65;71.29;100988.88;10498097;28;20094;-69
2022/04/27 21:32:34;;;;;;;6.88;6.22;;;;;;;8.70;71.24;100990.56;10498551;28;20406;-69
2022/04/27 21:37:35;;;;;;;7.53;6.25;;;;;;;8.79;72.50;100993.09;10498215;28;20041;-69
2022/04/27 21:42:37;;;;;;;7.47;6.80;;;;;;;8.58;73.04;100994.13;10498076;28;20099;-69
2022/04/27 21:47:38;;;;;;;7.55;6.95;;;;;;;8.71;72.89;100994.03;10497801;28;20044;-69
2022/04/27 21:52:40;;;;;;;6.97;6.47;;;;;;;8.73;73.02;101001.03;10497848;28;20044;-69
2022/04/27 21:57:44;;;;;;;7.20;6.60;;;;;;;8.92;74.10;101000.84;10497667;28;20041;-68
2022/04/27 22:02:45;;;;;;;9.95;7.07;;;;;;;8.77;73.79;101004.50;10497716;28;20094;-69
2022/04/27 22:07:47;;;;;;;5.60;5.10;;;;;;;8.64;74.04;101015.97;10497667;28;20045;-69
2022/04/27 22:12:49;;;;;;;8.63;6.55;;;;;;;8.77;73.04;101009.72;10497999;28;20106;-69
2022/04/27 22:17:51;;;;;;;7.10;6.60;;;;;;;8.84;73.88;101014.03;10497506;28;20469;-69
2022/04/27 22:22:52;;;;;;;7.05;6.32;;;;;;;8.74;74.55;101017.63;10497379;28;20048;-69
2022/04/27 22:27:54;;;;;;;7.35;6.75;;;;;;;8.81;73.30;101017.56;10497447;28;20040;-68
2022/04/27 22:32:55;;;;;;;6.97;6.38;;;;;;;8.65;74.12;101026.41;10471893;28;20556;-67
2022/04/27 22:37:57;;;;;;;7.05;6.45;;;;;;;8.58;74.70;101020.34;10503839;28;20102;-67
2022/04/27 22:42:58;;;;;;;7.07;6.47;;;;;;;8.52;74.91;101027.41;10504432;28;20094;-68
2022/04/27 22:48:00;;;;;;;7.05;6.47;;;;;;;8.56;75.66;101029.97;10504665;28;20052;-68
2022/04/27 22:53:01;;;;;;;5.93;5.53;;;;;;;8.46;76.41;101030.94;10503897;28;20044;-68
2022/04/27 22:58:03;;;;;;;8.02;6.72;;;;;;;8.46;77.23;101028.31;10503865;28;20044;-68
2022/04/27 23:03:05;;;;;;;8.23;7.00;;;;;;;8.47;75.95;101031.81;10503482;28;20045;-68
2022/04/27 23:13:32;;;;;;;8.88;8.18;;;;;;;8.58;74.59;101041.31;10502957;28;20048;-68
2022/04/27 23:18:35;;;;;;;9.02;7.35;;;;;;;8.42;74.47;101039.69;10503203;28;20041;-68
2022/04/27 23:23:37;;;;;;;8.40;7.70;;;;;;;8.17;76.71;101024.97;10502947;28;20150;-68
2022/04/27 23:28:40;;;;;;;9.13;8.43;;;;;;;8.08;78.08;101034.63;10502935;28;20037;-68
2022/04/27 23:33:41;;;;;;;9.10;8.05;;;;;;;8.03;78.49;101027.69;10500566;28;20379;-68
2022/04/27 23:38:43;;;;;;;9.10;7.80;;;;;;;8.26;78.34;101040.63;10502449;28;20102;-68
2022/04/27 23:43:44;;;;;;;9.82;8.25;;;;;;;8.39;75.49;101031.84;10502384;28;20044;-68
2022/04/27 23:48:46;;;;;;;7.85;7.35;;;;;;;7.94;77.08;101039.06;10501010;28;20140;-68
2022/04/27 23:53:48;;;;;;;9.65;8.85;;;;;;;7.74;78.39;101031.28;10501692;28;20048;-68
2022/04/27 23:58:49;;;;;;;9.05;8.15;;;;;;;7.91;77.05;101031.22;10501344;28;20044;-68
